createdAt,value
2022-10-25T00:01:18.610Z,93.90
2022-10-25T00:03:42.048Z,93.70
2022-10-25T00:06:05.766Z,93.80
2022-10-25T00:08:28.993Z,93.80
2022-10-25T00:10:52.273Z,93.80
2022-10-25T00:13:17.044Z,94.10
2022-10-25T00:15:40.292Z,93.90
2022-10-25T00:18:03.615Z,93.90
2022-10-25T00:20:26.958Z,94.20
2022-10-25T00:22:50.174Z,94.20
2022-10-25T00:25:13.631Z,93.50
2022-10-25T00:27:37.173Z,93.70
2022-10-25T00:30:02.250Z,93.90
2022-10-25T00:32:25.643Z,93.80
2022-10-25T00:34:49.076Z,93.90
2022-10-25T00:37:12.413Z,92.40
2022-10-25T00:39:35.628Z,93.10
2022-10-25T00:41:58.869Z,93.50
2022-10-25T00:44:57.552Z,93.30
2022-10-25T00:47:53.288Z,92.80
2022-10-25T00:50:30.128Z,92.80
2022-10-25T00:52:58.006Z,91.20
2022-10-25T00:55:23.341Z,92.10
2022-10-25T00:57:51.871Z,92.60
2022-10-25T01:00:15.787Z,91.10
2022-10-25T01:02:39.249Z,90.90
2022-10-25T01:05:04.591Z,91.50
2022-10-25T01:07:27.802Z,90.30
2022-10-25T01:09:52.333Z,92.00
2022-10-25T01:12:15.639Z,90.40
2022-10-25T01:14:43.195Z,90.70
2022-10-25T01:17:17.266Z,90.20
2022-10-25T01:20:17.498Z,89.90
2022-10-25T01:22:48.411Z,90.40
2022-10-25T01:25:54.625Z,89.60
2022-10-25T01:28:27.887Z,90.30
2022-10-25T01:31:24.806Z,90.10
2022-10-25T01:33:55.759Z,90.50
2022-10-25T01:36:31.745Z,89.20
2022-10-25T01:39:07.620Z,89.30
2022-10-25T01:41:39.811Z,89.50
2022-10-25T01:44:18.164Z,90.30
2022-10-25T01:46:51.348Z,90.00
2022-10-25T01:49:23.870Z,90.70
2022-10-25T01:51:47.030Z,89.30
2022-10-25T01:54:21.488Z,89.80
2022-10-25T01:56:56.676Z,89.20
2022-10-25T01:59:45.418Z,89.40
2022-10-25T02:02:17.580Z,90.20
2022-10-25T02:04:51.567Z,91.20
2022-10-25T02:07:24.731Z,90.90
2022-10-25T02:10:00.019Z,91.50
2022-10-25T02:12:31.422Z,91.60
2022-10-25T02:15:07.364Z,91.60
2022-10-25T02:17:35.280Z,91.60
2022-10-25T02:20:01.793Z,91.00
2022-10-25T02:22:30.124Z,91.10
2022-10-25T02:24:54.598Z,91.50
2022-10-25T02:27:21.276Z,91.00
2022-10-25T02:29:46.931Z,91.50
2022-10-25T02:32:10.236Z,91.70
2022-10-25T02:34:35.210Z,91.90
2022-10-25T02:36:58.519Z,91.90
2022-10-25T02:39:26.505Z,91.40
2022-10-25T02:41:52.336Z,91.70
2022-10-25T02:44:15.573Z,91.50
2022-10-25T02:46:38.795Z,91.90
2022-10-25T02:49:02.078Z,91.40
2022-10-25T02:51:26.717Z,91.00
2022-10-25T02:53:50.400Z,91.00
2022-10-25T02:56:17.170Z,90.80
2022-10-25T02:58:42.938Z,90.70
2022-10-25T03:01:07.481Z,90.80
2022-10-25T03:03:31.088Z,90.30
2022-10-25T03:05:55.156Z,90.30
2022-10-25T03:08:20.387Z,90.00
2022-10-25T03:10:44.083Z,89.80
2022-10-25T03:13:07.284Z,90.30
2022-10-25T03:15:30.653Z,90.80
2022-10-25T03:17:53.869Z,90.00
2022-10-25T03:20:17.261Z,90.40
2022-10-25T03:22:40.472Z,90.50
2022-10-25T03:25:06.209Z,89.90
2022-10-25T03:27:29.510Z,90.10
2022-10-25T03:29:52.729Z,89.30
2022-10-25T03:32:15.986Z,90.10
2022-10-25T03:34:39.199Z,89.80
2022-10-25T03:37:02.630Z,90.10
2022-10-25T03:39:25.978Z,90.40
2022-10-25T03:41:50.637Z,89.30
2022-10-25T03:44:13.932Z,89.50
2022-10-25T03:46:37.119Z,89.20
2022-10-25T03:49:00.329Z,89.30
2022-10-25T03:51:23.607Z,89.30
2022-10-25T03:53:46.873Z,88.70
2022-10-25T03:56:10.124Z,88.90
2022-10-25T03:58:35.052Z,88.80
2022-10-25T04:00:59.975Z,88.20
2022-10-25T04:03:24.040Z,88.50
2022-10-25T04:05:47.223Z,88.80
2022-10-25T04:08:10.462Z,88.30
2022-10-25T04:10:33.692Z,89.20
2022-10-25T04:12:56.942Z,89.20
2022-10-25T04:15:21.599Z,88.80
2022-10-25T04:17:45.069Z,88.60
2022-10-25T04:20:09.924Z,89.70
2022-10-25T04:22:33.280Z,88.20
2022-10-25T04:24:56.607Z,88.50
2022-10-25T04:27:19.863Z,89.50
2022-10-25T04:29:43.221Z,89.80
2022-10-25T04:32:08.462Z,88.90
2022-10-25T04:34:31.795Z,88.70
2022-10-25T04:36:55.027Z,89.20
2022-10-25T04:39:18.309Z,88.60
2022-10-25T04:41:41.576Z,88.80
2022-10-25T04:44:05.170Z,88.70
2022-10-25T04:46:28.434Z,88.40
2022-10-25T04:48:53.083Z,88.90
2022-10-25T04:51:17.249Z,89.20
2022-10-25T04:53:40.663Z,89.30
2022-10-25T04:56:07.156Z,89.10
2022-10-25T04:58:31.635Z,89.00
2022-10-25T05:01:00.191Z,88.90
2022-10-25T05:03:23.501Z,88.80
2022-10-25T05:05:48.159Z,88.90
2022-10-25T05:08:11.826Z,89.00
2022-10-25T05:10:35.100Z,88.70
2022-10-25T05:12:58.343Z,89.30
2022-10-25T05:15:21.593Z,89.20
2022-10-25T05:17:44.851Z,89.40
2022-10-25T05:20:09.473Z,89.40
2022-10-25T05:22:34.181Z,89.40
2022-10-25T05:24:57.769Z,89.30
2022-10-25T05:27:21.486Z,89.60
2022-10-25T05:29:44.775Z,89.60
2022-10-25T05:32:08.276Z,89.60
2022-10-25T05:34:31.953Z,90.00
2022-10-25T05:36:55.228Z,89.30
2022-10-25T05:39:19.976Z,89.00
2022-10-25T05:41:43.225Z,89.50
2022-10-25T05:44:07.013Z,89.80
2022-10-25T05:46:30.320Z,89.20
2022-10-25T05:48:54.135Z,89.20
2022-10-25T05:51:33.701Z,90.20
2022-10-25T05:54:00.456Z,90.40
2022-10-25T05:56:27.826Z,90.30
2022-10-25T05:58:51.334Z,89.40
2022-10-25T06:01:17.343Z,89.40
2022-10-25T06:03:40.775Z,89.70
2022-10-25T06:06:05.725Z,89.80
2022-10-25T06:08:29.691Z,90.10
2022-10-25T06:10:53.019Z,90.10
2022-10-25T06:13:17.789Z,89.50
2022-10-25T06:15:41.051Z,89.80
2022-10-25T06:18:04.478Z,89.90
2022-10-25T06:20:27.986Z,89.50
2022-10-25T06:22:51.341Z,89.90
2022-10-25T06:25:14.751Z,90.30
2022-10-25T06:27:38.046Z,90.40
2022-10-25T06:30:02.637Z,90.70
2022-10-25T06:32:25.909Z,90.60
2022-10-25T06:34:49.120Z,90.40
2022-10-25T06:37:12.765Z,91.00
2022-10-25T06:39:35.976Z,91.00
2022-10-25T06:41:59.303Z,91.20
2022-10-25T06:44:22.895Z,91.50
2022-10-25T06:49:30.716Z,91.20
2022-10-25T06:51:53.977Z,91.20
2022-10-25T06:54:17.408Z,91.30
2022-10-25T06:56:40.684Z,91.30
2022-10-25T06:59:04.442Z,91.40
2022-10-25T07:01:27.827Z,91.10
2022-10-25T07:03:53.860Z,91.00
2022-10-25T07:06:20.125Z,91.10
2022-10-25T07:08:46.266Z,91.20
2022-10-25T07:11:14.632Z,91.60
2022-10-25T07:13:37.860Z,91.60
2022-10-25T07:16:04.213Z,91.50
2022-10-25T07:18:27.400Z,91.30
2022-10-25T07:20:51.985Z,91.10
2022-10-25T07:23:16.064Z,91.00
2022-10-25T07:25:39.379Z,90.90
2022-10-25T07:28:02.621Z,89.90
2022-10-25T07:30:25.867Z,90.50
2022-10-25T07:32:49.144Z,90.00
2022-10-25T07:35:12.369Z,90.00
2022-10-25T07:37:37.026Z,89.50
2022-10-25T07:40:00.700Z,89.10
2022-10-25T07:42:23.929Z,88.90
2022-10-25T07:47:15.310Z,89.40
2022-10-25T07:49:39.897Z,88.80
2022-10-25T07:52:03.172Z,88.90
2022-10-25T07:54:27.768Z,88.20
2022-10-25T07:56:51.375Z,88.40
2022-10-25T07:59:15.333Z,88.50
2022-10-25T08:01:38.692Z,88.00
2022-10-25T08:04:02.214Z,88.60
2022-10-25T08:06:26.986Z,88.00
2022-10-25T08:08:50.575Z,87.70
2022-10-25T08:11:15.895Z,87.80
2022-10-25T08:13:40.484Z,88.40
2022-10-25T08:16:03.821Z,87.50
2022-10-25T08:18:27.435Z,87.90
2022-10-25T08:21:02.277Z,87.30
2022-10-25T08:23:26.646Z,87.10
2022-10-25T08:25:50.037Z,87.90
2022-10-25T08:28:14.959Z,88.30
2022-10-25T08:30:38.322Z,88.10
2022-10-25T08:33:01.534Z,88.50
2022-10-25T08:35:24.813Z,86.80
2022-10-25T08:37:48.241Z,85.90
2022-10-25T08:40:19.959Z,85.90
2022-10-25T08:43:02.499Z,86.30
2022-10-25T08:45:36.913Z,84.90
2022-10-25T08:48:01.749Z,84.70
2022-10-25T08:50:33.315Z,85.70
2022-10-25T08:53:00.613Z,85.50
2022-10-25T08:55:32.796Z,84.40
2022-10-25T08:57:58.449Z,84.00
2022-10-25T09:00:24.137Z,84.50
2022-10-25T09:02:53.553Z,84.10
2022-10-25T09:05:32.067Z,83.80
2022-10-25T09:08:14.311Z,83.20
2022-10-25T09:10:51.350Z,83.20
2022-10-25T09:13:30.199Z,84.60
2022-10-25T09:16:09.159Z,83.30
2022-10-25T09:18:44.480Z,83.00
2022-10-25T09:21:22.189Z,82.20
2022-10-25T09:24:02.595Z,82.40
2022-10-25T09:26:41.180Z,81.50
2022-10-25T09:29:11.630Z,80.70
2022-10-25T09:31:42.272Z,81.30
2022-10-25T09:34:10.400Z,81.00
2022-10-25T09:36:39.565Z,81.80
2022-10-25T09:39:11.218Z,80.70
2022-10-25T09:41:41.737Z,80.90
2022-10-25T09:44:10.937Z,81.30
2022-10-25T09:46:41.117Z,81.80
2022-10-25T09:49:17.956Z,79.80
2022-10-25T09:51:53.096Z,80.40
2022-10-25T09:54:27.829Z,81.40
2022-10-25T09:56:51.238Z,80.90
2022-10-25T09:59:16.026Z,80.00
2022-10-25T10:01:40.905Z,81.10
2022-10-25T10:04:26.730Z,80.30
2022-10-25T10:06:52.157Z,81.10
2022-10-25T10:09:17.591Z,81.80
2022-10-25T10:11:42.408Z,80.50
2022-10-25T10:14:12.143Z,80.90
2022-10-25T10:16:41.722Z,82.00
2022-10-25T10:19:19.150Z,79.30
2022-10-25T10:21:45.254Z,79.60
2022-10-25T10:24:13.072Z,80.20
2022-10-25T10:26:49.019Z,80.20
2022-10-25T10:29:17.847Z,77.80
2022-10-25T10:31:44.228Z,80.20
2022-10-25T10:34:24.118Z,77.30
2022-10-25T10:36:50.078Z,78.50
2022-10-25T10:39:24.672Z,78.70
2022-10-25T10:42:03.410Z,78.70
2022-10-25T10:44:26.767Z,77.70
2022-10-25T10:46:50.067Z,78.50
2022-10-25T10:49:14.794Z,76.30
2022-10-25T10:51:45.331Z,77.10
2022-10-25T10:54:26.939Z,76.70
2022-10-25T10:56:56.471Z,76.10
2022-10-25T10:59:44.004Z,75.90
2022-10-25T11:02:29.225Z,75.70
2022-10-25T11:04:55.034Z,75.90
2022-10-25T11:07:31.934Z,75.50
2022-10-25T11:10:19.262Z,77.00
2022-10-25T11:12:42.737Z,76.10
2022-10-25T11:15:12.252Z,76.50
2022-10-25T11:17:40.928Z,76.00
2022-10-25T11:20:24.971Z,75.20
2022-10-25T11:23:01.281Z,75.80
2022-10-25T11:25:39.903Z,76.80
2022-10-25T11:28:25.949Z,76.80
2022-10-25T11:31:01.255Z,76.70
2022-10-25T11:33:43.479Z,76.30
2022-10-25T11:36:47.988Z,76.20
2022-10-25T11:39:33.471Z,75.40
2022-10-25T11:42:07.109Z,75.40
2022-10-25T11:44:52.626Z,76.00
2022-10-25T11:47:29.190Z,75.20
2022-10-25T11:50:11.242Z,75.70
2022-10-25T11:53:15.117Z,74.80
2022-10-25T11:55:45.336Z,75.30
2022-10-25T11:58:22.246Z,75.00
2022-10-25T12:00:58.241Z,75.00
2022-10-25T12:04:01.696Z,74.70
2022-10-25T12:06:32.331Z,74.70
2022-10-25T12:09:08.706Z,74.90
2022-10-25T12:11:38.522Z,76.40
2022-10-25T12:14:06.124Z,74.60
2022-10-25T12:16:31.767Z,75.90
2022-10-25T12:19:08.998Z,76.40
2022-10-25T12:21:43.501Z,75.20
2022-10-25T12:24:14.212Z,75.80
2022-10-25T12:26:42.065Z,74.30
2022-10-25T12:29:08.782Z,74.50
2022-10-25T12:31:39.760Z,75.50
2022-10-25T12:34:10.515Z,75.90
2022-10-25T12:36:39.631Z,74.20
2022-10-25T12:39:08.230Z,75.70
2022-10-25T12:41:36.300Z,74.70
2022-10-25T12:44:21.426Z,74.00
2022-10-25T12:47:13.455Z,75.30
2022-10-25T12:50:05.062Z,73.70
2022-10-25T12:52:35.461Z,73.40
2022-10-25T12:55:33.356Z,75.10
2022-10-25T12:58:26.969Z,74.00
2022-10-25T13:01:21.664Z,74.90
2022-10-25T13:04:08.364Z,73.70
2022-10-25T13:06:35.330Z,74.10
2022-10-25T13:09:06.652Z,73.60
2022-10-25T13:11:35.718Z,74.40
2022-10-25T13:13:59.011Z,73.70
2022-10-25T13:16:29.619Z,72.70
2022-10-25T13:19:53.631Z,73.80
2022-10-25T13:22:35.629Z,73.50
2022-10-25T13:25:02.064Z,74.80
2022-10-25T13:27:27.432Z,77.00
2022-10-25T13:33:33.682Z,73.30
2022-10-25T13:36:04.766Z,74.40
2022-10-25T13:38:30.326Z,73.70
2022-10-25T13:41:15.956Z,72.60
2022-10-25T13:44:03.247Z,73.10
2022-10-25T13:46:32.643Z,73.50
2022-10-25T13:48:57.799Z,73.10
2022-10-25T13:51:23.221Z,73.70
2022-10-25T13:53:48.754Z,74.70
2022-10-25T13:56:17.235Z,73.80
2022-10-25T13:58:49.731Z,73.90
2022-10-25T14:01:53.763Z,73.60
2022-10-25T14:04:25.100Z,73.30
2022-10-25T14:06:48.487Z,73.30
2022-10-25T14:09:25.229Z,72.20
2022-10-25T14:11:53.211Z,73.40
2022-10-25T14:14:28.436Z,73.10
2022-10-25T14:17:06.705Z,72.70
2022-10-25T14:19:37.906Z,73.30
2022-10-25T14:22:02.981Z,73.00
2022-10-25T14:24:26.281Z,74.30
2022-10-25T14:26:55.644Z,72.90
2022-10-25T14:29:22.147Z,73.00
2022-10-25T14:31:45.492Z,73.00
2022-10-25T14:34:21.458Z,74.20
2022-10-25T14:36:50.598Z,71.80
2022-10-25T14:39:19.476Z,72.10
2022-10-25T14:41:51.390Z,74.50
2022-10-25T14:44:25.245Z,75.70
2022-10-25T14:46:48.552Z,73.90
2022-10-25T14:49:11.835Z,74.80
2022-10-25T14:51:38.691Z,74.70
2022-10-25T14:54:06.574Z,73.90
2022-10-25T14:56:33.552Z,75.10
2022-10-25T14:58:57.693Z,74.50
2022-10-25T15:01:23.598Z,75.30
2022-10-25T15:03:49.384Z,75.00
2022-10-25T15:06:14.673Z,74.40
2022-10-25T15:08:41.754Z,74.80
2022-10-25T15:11:10.563Z,74.10
2022-10-25T15:13:43.805Z,74.10
2022-10-25T15:16:36.921Z,74.90
2022-10-25T15:19:20.645Z,75.30
2022-10-25T15:21:45.896Z,75.20
2022-10-25T15:24:15.343Z,75.60
2022-10-25T15:26:40.596Z,76.60
2022-10-25T15:29:03.848Z,76.50
2022-10-25T15:31:29.890Z,76.60
2022-10-25T15:34:02.113Z,75.80
2022-10-25T15:36:27.911Z,76.50
2022-10-25T15:39:07.264Z,76.70
2022-10-25T15:41:32.445Z,76.60
2022-10-25T15:43:57.160Z,76.50
2022-10-25T15:46:31.323Z,76.40
2022-10-25T15:48:54.696Z,77.30
2022-10-25T15:51:18.917Z,76.50
2022-10-25T15:53:42.142Z,77.60
2022-10-25T15:56:05.949Z,78.80
2022-10-25T15:58:29.168Z,77.20
2022-10-25T16:00:54.087Z,77.50
2022-10-25T16:03:22.815Z,76.70
2022-10-25T16:05:46.106Z,77.20
2022-10-25T16:08:10.443Z,77.90
2022-10-25T16:10:33.810Z,76.60
2022-10-25T16:13:03.799Z,77.30
2022-10-25T16:15:27.440Z,77.80
2022-10-25T16:17:52.077Z,79.00
2022-10-25T16:20:20.290Z,79.30
2022-10-25T16:22:43.604Z,79.30
2022-10-25T16:25:07.884Z,79.60
2022-10-25T16:27:31.639Z,79.50
2022-10-25T16:29:55.227Z,79.70
2022-10-25T16:32:19.431Z,81.60
2022-10-25T16:34:46.041Z,81.60
2022-10-25T16:37:11.843Z,82.40
2022-10-25T16:39:35.386Z,82.40
2022-10-25T16:41:58.561Z,82.30
2022-10-25T16:44:21.912Z,83.00
2022-10-25T16:46:46.049Z,83.20
2022-10-25T16:49:10.107Z,84.10
2022-10-25T16:51:35.302Z,84.10
2022-10-25T16:53:59.190Z,84.70
2022-10-25T16:56:22.410Z,84.40
2022-10-25T16:58:45.914Z,83.90
2022-10-25T17:01:21.319Z,85.20
2022-10-25T17:03:44.897Z,85.60
2022-10-25T17:06:22.119Z,85.80
2022-10-25T17:08:53.055Z,86.00
2022-10-25T17:11:16.985Z,86.60
2022-10-25T17:13:40.571Z,84.90
2022-10-25T17:16:07.009Z,85.30
2022-10-25T17:18:30.224Z,86.30
2022-10-25T17:20:53.746Z,86.30
2022-10-25T17:23:17.055Z,86.40
2022-10-25T17:25:41.733Z,86.60
2022-10-25T17:28:05.550Z,86.90
2022-10-25T17:30:28.843Z,86.80
2022-10-25T17:32:52.535Z,86.00
2022-10-25T17:35:15.756Z,86.60
2022-10-25T17:37:42.675Z,86.70
2022-10-25T17:40:07.385Z,87.10
2022-10-25T17:42:31.955Z,87.40
2022-10-25T17:44:55.235Z,87.40
2022-10-25T17:47:18.378Z,87.30
2022-10-25T17:49:41.895Z,87.40
2022-10-25T17:52:06.683Z,87.60
2022-10-25T17:54:30.133Z,88.10
2022-10-25T17:56:56.384Z,88.50
2022-10-25T17:59:20.940Z,88.00
2022-10-25T18:01:44.337Z,88.40
2022-10-25T18:04:08.113Z,88.50
2022-10-25T18:06:31.890Z,88.70
2022-10-25T18:08:56.957Z,88.70
2022-10-25T18:11:23.346Z,88.50
2022-10-25T18:13:47.100Z,88.50
2022-10-25T18:16:13.005Z,88.30
2022-10-25T18:18:36.374Z,88.70
2022-10-25T18:21:05.323Z,89.00
2022-10-25T18:23:28.600Z,89.50
2022-10-25T18:25:52.861Z,89.20
2022-10-25T18:28:16.192Z,89.30
2022-10-25T18:30:39.367Z,89.50
2022-10-25T18:33:08.971Z,89.50
2022-10-25T18:35:32.309Z,89.30
2022-10-25T18:37:58.142Z,89.40
2022-10-25T18:40:22.692Z,89.70
2022-10-25T18:42:45.928Z,89.80
2022-10-25T18:45:10.635Z,89.50
2022-10-25T18:47:34.104Z,89.30
2022-10-25T18:49:58.700Z,89.70
2022-10-25T18:52:23.149Z,89.90
2022-10-25T18:54:46.492Z,89.90
2022-10-25T18:57:09.725Z,89.60
2022-10-25T18:59:32.915Z,89.50
2022-10-25T19:01:56.455Z,89.40
2022-10-25T19:04:19.863Z,89.40
2022-10-25T19:06:45.216Z,89.70
2022-10-25T19:09:09.442Z,89.60
2022-10-25T19:11:34.556Z,89.70
2022-10-25T19:13:58.386Z,89.90
2022-10-25T19:16:22.065Z,89.80
2022-10-25T19:18:45.380Z,90.00
2022-10-25T19:21:11.410Z,90.10
2022-10-25T19:23:39.119Z,90.00
2022-10-25T19:26:03.887Z,90.00
2022-10-25T19:28:27.672Z,89.80
2022-10-25T19:30:50.860Z,90.20
2022-10-25T19:33:14.190Z,90.20
2022-10-25T19:35:37.608Z,90.10
2022-10-25T19:38:01.072Z,90.30
2022-10-25T19:40:25.955Z,90.10
2022-10-25T19:42:49.200Z,90.50
2022-10-25T19:45:13.549Z,90.60
2022-10-25T19:47:36.784Z,90.60
2022-10-25T19:49:59.990Z,90.30
2022-10-25T19:52:23.338Z,90.50
2022-10-25T19:54:46.576Z,90.30
2022-10-25T19:57:11.344Z,90.40
2022-10-25T19:59:35.031Z,90.60
2022-10-25T20:01:58.266Z,90.50
2022-10-25T20:04:22.062Z,90.90
2022-10-25T20:06:45.223Z,90.80
2022-10-25T20:09:10.041Z,90.90
2022-10-25T20:11:33.908Z,90.70
2022-10-25T20:14:01.243Z,91.10
2022-10-25T20:16:25.400Z,91.10
2022-10-25T20:18:48.663Z,90.70
2022-10-25T20:21:15.249Z,90.60
2022-10-25T20:23:39.501Z,90.90
2022-10-25T20:26:13.042Z,90.70
2022-10-25T20:28:36.232Z,90.90
2022-10-25T20:31:04.979Z,90.90
2022-10-25T20:33:28.119Z,91.00
2022-10-25T20:35:51.373Z,91.10
2022-10-25T20:38:14.839Z,90.90
2022-10-25T20:40:38.183Z,91.10
2022-10-25T20:43:01.678Z,90.80
2022-10-25T20:45:25.199Z,91.20
2022-10-25T20:47:50.705Z,91.00
2022-10-25T20:50:14.205Z,90.90
2022-10-25T20:52:47.645Z,90.90
2022-10-25T20:55:11.936Z,91.00
2022-10-25T20:57:37.281Z,90.90
2022-10-25T21:00:00.511Z,91.10
2022-10-25T21:02:23.987Z,91.40
2022-10-25T21:04:53.670Z,90.90
2022-10-25T21:07:17.266Z,91.10
2022-10-25T21:09:40.407Z,91.40
2022-10-25T21:12:03.811Z,91.60
2022-10-25T21:14:27.060Z,91.60
2022-10-25T21:16:51.235Z,91.50
2022-10-25T21:19:14.594Z,91.40
2022-10-25T21:21:39.168Z,91.10
2022-10-25T21:24:03.680Z,91.20
2022-10-25T21:26:27.000Z,91.40
2022-10-25T21:28:50.469Z,91.30
2022-10-25T21:31:16.129Z,91.00
2022-10-25T21:33:40.353Z,91.60
2022-10-25T21:36:06.526Z,91.50
2022-10-25T21:38:31.375Z,91.70
2022-10-25T21:40:54.590Z,91.30
2022-10-25T21:43:17.838Z,91.30
2022-10-25T21:45:42.522Z,91.50
2022-10-25T21:48:06.580Z,91.50
2022-10-25T21:50:29.759Z,91.50
2022-10-25T21:52:54.372Z,91.40
2022-10-25T21:55:18.999Z,91.70
2022-10-25T21:57:42.187Z,91.60
2022-10-25T22:00:07.239Z,91.60
2022-10-25T22:02:36.086Z,91.80
2022-10-25T22:04:59.365Z,91.60
2022-10-25T22:07:23.352Z,91.80
2022-10-25T22:09:47.151Z,91.80
2022-10-25T22:12:11.850Z,91.90
2022-10-25T22:14:35.216Z,91.80
2022-10-25T22:16:58.388Z,91.90
2022-10-25T22:21:53.014Z,91.90
2022-10-25T22:24:16.322Z,91.90
2022-10-25T22:26:42.024Z,92.10
2022-10-25T22:29:06.873Z,92.00
2022-10-25T22:31:31.254Z,92.50
2022-10-25T22:33:55.921Z,92.40
2022-10-25T22:36:21.502Z,92.10
2022-10-25T22:38:45.338Z,92.20
2022-10-25T22:41:12.014Z,92.30
2022-10-25T22:43:37.535Z,92.60
2022-10-25T22:46:03.601Z,92.70
2022-10-25T22:48:31.255Z,92.50
2022-10-25T22:50:55.849Z,92.30
2022-10-25T22:53:20.460Z,92.50
2022-10-25T22:55:44.361Z,92.40
2022-10-25T22:58:07.590Z,92.40
2022-10-25T23:00:30.885Z,92.40
2022-10-25T23:02:56.445Z,92.10
2022-10-25T23:05:19.733Z,92.00
2022-10-25T23:07:43.046Z,92.10
2022-10-25T23:10:07.399Z,92.30
2022-10-25T23:12:30.615Z,92.20
2022-10-25T23:14:54.210Z,92.20
2022-10-25T23:17:17.430Z,92.40
2022-10-25T23:19:42.284Z,92.30
2022-10-25T23:22:05.630Z,92.40
2022-10-25T23:24:28.899Z,92.40
2022-10-25T23:26:52.107Z,92.30
2022-10-25T23:29:15.300Z,92.60
2022-10-25T23:31:38.475Z,92.60
2022-10-25T23:34:02.447Z,92.50
2022-10-25T23:36:28.830Z,92.50
2022-10-25T23:38:54.192Z,92.60
2022-10-25T23:41:18.611Z,92.60
2022-10-25T23:43:42.272Z,92.50
2022-10-25T23:46:06.707Z,92.80
2022-10-25T23:48:29.986Z,92.80
2022-10-25T23:50:58.364Z,93.10
2022-10-25T23:53:23.007Z,92.90
2022-10-25T23:55:46.326Z,92.80
2022-10-25T23:58:09.601Z,92.80
